Time;durP1;ratioP1;P1;durP2;ratioP2;P2;SDS_P1;SDS_P2;PMS_P1;PMS_P2;Temp;Humidity;BMP_temperature;BMP_pressure;BME280_temperature;BME280_humidity;BME280_pressure;Samples;Min_cycle;Max_cycle;Signal;HPM_P1;HPM_P2
2023/02/17 00:02:37;;;;;;;13.70;6.38;;;;;;;1.46;100.00;100759.94;6347384;28;20491;-75
2023/02/17 00:05:39;;;;;;;11.95;7.50;;;;;;;1.43;100.00;100760.84;6346030;28;20047;-75
2023/02/17 00:08:42;;;;;;;16.83;5.82;;;;;;;1.40;100.00;100760.84;6347250;28;20040;-75
2023/02/17 00:11:43;;;;;;;11.70;6.32;;;;;;;1.41;100.00;100754.84;6347324;28;20040;-75
2023/02/17 00:14:44;;;;;;;21.70;5.97;;;;;;;1.36;100.00;100751.47;6347222;28;20054;-75
2023/02/17 00:17:45;;;;;;;15.07;6.85;;;;;;;1.15;100.00;100747.44;6346932;28;20047;-77
2023/02/17 00:20:45;;;;;;;13.23;5.68;;;;;;;1.14;100.00;100756.88;6363298;27;20039;-77
2023/02/17 00:23:48;;;;;;;11.07;6.03;;;;;;;1.09;100.00;100765.50;6371185;27;20111;-76
2023/02/17 00:26:49;;;;;;;22.35;6.65;;;;;;;1.05;100.00;100771.53;6371171;27;20499;-77
2023/02/17 00:29:49;;;;;;;19.50;8.02;;;;;;;1.02;100.00;100766.44;6352477;27;20042;-77
2023/02/17 00:32:50;;;;;;;18.70;8.15;;;;;;;1.00;100.00;100761.31;6345338;28;20107;-76
2023/02/17 00:35:51;;;;;;;20.67;9.15;;;;;;;1.02;100.00;100753.59;6346668;28;20476;-77
2023/02/17 00:38:57;;;;;;;14.70;6.38;;;;;;;0.95;100.00;100750.25;6345405;28;20428;-76
2023/02/17 00:41:58;;;;;;;11.68;6.65;;;;;;;0.92;100.00;100750.25;6345352;28;20419;-77
2023/02/17 00:44:58;;;;;;;18.17;8.43;;;;;;;0.97;100.00;100753.66;6345200;28;20043;-77
2023/02/17 00:47:59;;;;;;;13.50;7.00;;;;;;;0.96;100.00;100755.34;6345216;28;20499;-77
2023/02/17 00:51:02;;;;;;;10.35;5.93;;;;;;;0.97;100.00;100761.34;6345125;28;20039;-77
2023/02/17 00:54:04;;;;;;;14.73;6.45;;;;;;;0.91;100.00;100759.69;6346316;28;20050;-76
2023/02/17 00:57:04;;;;;;;20.00;8.23;;;;;;;0.91;100.00;100754.56;6346298;28;20040;-73
2023/02/17 01:00:08;;;;;;;21.45;8.68;;;;;;;0.86;100.00;100751.16;6344943;28;20569;-73
2023/02/17 01:03:11;;;;;;;13.98;6.97;;;;;;;0.85;100.00;100746.91;6345008;28;20035;-73
2023/02/17 01:06:21;;;;;;;27.13;8.13;;;;;;;0.84;100.00;100747.75;6344927;28;20087;-76
2023/02/17 01:09:24;;;;;;;20.63;8.60;;;;;;;0.84;100.00;100741.78;6346035;28;20039;-77
2023/02/17 01:12:28;;;;;;;18.17;7.22;;;;;;;0.80;100.00;100738.38;6346094;28;20468;-77
2023/02/17 01:15:29;;;;;;;18.83;7.95;;;;;;;0.83;100.00;100743.50;6346137;28;20086;-77
2023/02/17 01:18:30;;;;;;;16.48;8.68;;;;;;;0.74;100.00;100738.44;6344774;28;20429;-76
2023/02/17 01:21:32;;;;;;;17.98;7.22;;;;;;;0.77;100.00;100743.56;6345938;28;20472;-76
2023/02/17 01:24:33;;;;;;;17.67;8.27;;;;;;;0.67;100.00;100740.22;6345881;28;20100;-76
2023/02/17 01:27:34;;;;;;;12.90;7.25;;;;;;;0.67;100.00;100732.50;6345828;28;20036;-76
2023/02/17 01:30:35;;;;;;;22.50;6.73;;;;;;;0.70;100.00;100735.06;6362418;27;20088;-76
2023/02/17 01:33:37;;;;;;;18.75;8.75;;;;;;;0.65;100.00;100734.25;6356907;28;20773;-73
2023/02/17 01:36:38;;;;;;;13.57;6.90;;;;;;;0.69;100.00;100720.50;6345831;28;20084;-73
2023/02/17 01:39:39;;;;;;;17.42;7.80;;;;;;;0.68;100.00;100726.53;6345577;28;20488;-77
2023/02/17 01:42:40;;;;;;;24.55;7.93;;;;;;;0.53;100.00;100730.06;6348718;28;20058;-77
2023/02/17 01:45:50;;;;;;;20.80;8.60;;;;;;;0.52;100.00;100732.66;6350695;28;20040;-77
2023/02/17 01:48:51;;;;;;;17.20;6.43;;;;;;;0.53;100.00;100724.09;6350641;28;20040;-77
2023/02/17 01:51:58;;;;;;;17.50;7.88;;;;;;;0.54;100.00;100718.94;6350390;28;20043;-77
2023/02/17 01:55:05;;;;;;;16.80;6.55;;;;;;;0.46;100.00;100723.28;6350444;28;20078;-77
2023/02/17 01:58:09;;;;;;;23.92;8.52;;;;;;;0.43;100.00;100719.88;6349017;28;20040;-77
2023/02/17 02:01:12;;;;;;;11.38;6.65;;;;;;;0.42;100.00;100715.63;6350686;28;20047;-77
2023/02/17 02:04:15;;;;;;;13.98;7.28;;;;;;;0.41;100.00;100709.63;6350185;28;20039;-77
2023/02/17 02:07:25;;;;;;;12.90;6.38;;;;;;;0.35;100.00;100702.84;6349009;28;20039;-73
2023/02/17 02:10:33;;;;;;;15.02;7.00;;;;;;;0.28;100.00;100701.19;6350063;28;20114;-73
2023/02/17 02:13:34;;;;;;;10.55;6.43;;;;;;;0.19;100.00;100696.16;6366315;27;20262;-73
2023/02/17 02:16:37;;;;;;;24.90;6.90;;;;;;;0.17;100.00;100687.59;6374253;27;20047;-74
2023/02/17 02:19:38;;;;;;;12.85;6.53;;;;;;;0.17;100.00;100693.59;6374025;27;20049;-73
2023/02/17 02:22:48;;;;;;;15.43;7.07;;;;;;;0.09;100.00;100692.78;6374067;27;20043;-73
2023/02/17 02:26:19;;;;;;;8.70;6.28;;;;;;;0.11;100.00;100710.75;6375178;27;20050;-74
2023/02/17 02:29:38;;;;;;;20.90;8.43;;;;;;;0.15;100.00;100715.00;6375023;27;20046;-74
2023/02/17 02:33:05;;;;;;;19.13;8.48;;;;;;;0.16;100.00;100712.41;6374993;27;20044;-73
2023/02/17 02:36:28;;;;;;;12.95;5.47;;;;;;;0.13;100.00;100707.31;6373744;27;20047;-73
2023/02/17 02:39:36;;;;;;;16.98;6.55;;;;;;;0.08;100.00;100710.75;6373581;27;20121;-74
2023/02/17 02:42:40;;;;;;;26.67;7.65;;;;;;;0.07;100.00;100698.81;6374994;27;20046;-73
2023/02/17 02:45:41;;;;;;;21.50;7.60;;;;;;;0.01;100.00;100706.56;6374609;27;20054;-73
2023/02/17 02:48:43;;;;;;;11.57;7.38;;;;;;;0.04;100.00;100696.25;6373533;27;20067;-73
2023/02/17 02:51:59;;;;;;;11.55;6.45;;;;;;;0.11;100.00;100714.16;6373505;27;20035;-73
2023/02/17 02:55:11;;;;;;;26.05;7.97;;;;;;;0.12;100.00;100712.44;6373592;27;20047;-74
2023/02/17 02:58:50;;;;;;;14.83;6.33;;;;;;;0.14;100.00;100715.84;6373263;27;20106;-73
2023/02/17 03:02:15;;;;;;;22.00;8.32;;;;;;;0.18;100.00;100710.66;6308781;27;20063;-74
2023/02/17 03:05:46;;;;;;;17.77;7.60;;;;;;;0.08;100.00;100713.31;6373006;27;20096;-73
2023/02/17 03:09:13;;;;;;;15.10;6.82;;;;;;;0.14;100.00;100728.69;6372972;27;20069;-73
2023/02/17 03:12:16;;;;;;;12.35;5.43;;;;;;;0.08;100.00;100723.59;6368925;27;20051;-73
2023/02/17 03:15:38;;;;;;;13.23;6.35;;;;;;;0.09;100.00;100726.16;6373930;27;20122;-73
2023/02/17 03:18:39;;;;;;;17.33;7.22;;;;;;;0.07;100.00;100720.19;6364745;27;20044;-73
2023/02/17 03:22:13;;;;;;;13.00;6.30;;;;;;;0.09;100.00;100715.88;6347120;28;20043;-76
2023/02/17 03:25:15;;;;;;;14.77;6.43;;;;;;;0.06;100.00;100709.91;6346957;28;20495;-77
2023/02/17 03:28:17;;;;;;;11.93;6.40;;;;;;;0.05;100.00;100705.66;6347049;28;20051;-76
2023/02/17 03:31:18;;;;;;;13.73;6.82;;;;;;;0.07;100.00;100716.78;6346889;28;20043;-77
2023/02/17 03:34:21;;;;;;;16.45;7.88;;;;;;;0.03;100.00;100717.66;6346819;28;20056;-77
2023/02/17 03:37:22;;;;;;;20.02;7.03;;;;;;;0.04;100.00;100715.06;6346811;28;20487;-73
2023/02/17 03:40:23;;;;;;;17.40;7.43;;;;;;;0.01;100.00;100694.56;6346562;28;20093;-76
2023/02/17 03:43:23;;;;;;;20.77;7.32;;;;;;;0.06;100.00;100700.50;6347963;28;20117;-76
2023/02/17 03:46:24;;;;;;;15.38;7.30;;;;;;;0.04;100.00;100679.13;6346467;28;20112;-76
2023/02/17 03:49:25;;;;;;;17.25;7.35;;;;;;;-0.09;100.00;100674.97;6347697;28;20047;-76
2023/02/17 03:52:26;;;;;;;22.25;7.40;;;;;;;-0.14;100.00;100690.41;6347531;28;20043;-73
2023/02/17 03:55:27;;;;;;;12.70;7.55;;;;;;;-0.19;100.00;100686.16;6346511;28;20048;-76
2023/02/17 03:58:28;;;;;;;12.25;6.38;;;;;;;-0.23;100.00;100682.75;6346395;28;20039;-76
2023/02/17 04:01:29;;;;;;;14.77;7.00;;;;;;;-0.21;100.00;100688.72;6347390;28;20114;-76
2023/02/17 04:04:30;;;;;;;14.80;7.60;;;;;;;-0.21;100.00;100687.03;6380012;27;20539;-76
2023/02/17 04:07:31;;;;;;;19.23;6.90;;;;;;;-0.26;100.00;100699.03;6346079;28;20047;-76
2023/02/17 04:10:32;;;;;;;22.02;8.52;;;;;;;-0.26;100.00;100708.44;6345957;28;20046;-76
2023/02/17 04:13:33;;;;;;;20.63;7.28;;;;;;;-0.27;100.00;100699.91;6345949;28;20118;-76
2023/02/17 04:16:37;;;;;;;16.77;8.27;;;;;;;-0.22;100.00;100710.97;6348620;27;20047;-76
2023/02/17 04:19:38;;;;;;;12.80;6.20;;;;;;;-0.24;100.00;100704.16;6372204;27;20042;-76
2023/02/17 04:22:41;;;;;;;18.05;7.65;;;;;;;-0.28;100.00;100705.88;6371344;27;20062;-76
2023/02/17 04:25:43;;;;;;;16.77;8.43;;;;;;;-0.31;100.00;100718.72;6372315;27;20054;-76
2023/02/17 04:28:46;;;;;;;20.30;7.68;;;;;;;-0.24;100.00;100725.50;6372368;27;20039;-76
2023/02/17 04:31:47;;;;;;;16.88;7.40;;;;;;;-0.21;100.00;100725.50;6372318;27;20055;-76
2023/02/17 04:34:48;;;;;;;16.52;7.90;;;;;;;-0.19;100.00;100715.22;6370884;27;20125;-74
2023/02/17 04:37:49;;;;;;;15.77;7.25;;;;;;;-0.21;100.00;100720.38;6372348;27;20031;-76
2023/02/17 04:40:54;;;;;;;11.27;5.63;;;;;;;-0.21;100.00;100720.38;6372045;27;20035;-76
2023/02/17 04:43:55;;;;;;;12.63;7.20;;;;;;;-0.24;100.00;100709.28;6371899;27;20096;-74
2023/02/17 04:46:56;;;;;;;20.13;7.78;;;;;;;-0.23;100.00;100705.84;6371957;27;20047;-74
2023/02/17 04:49:57;;;;;;;11.32;6.50;;;;;;;-0.29;100.00;100713.56;6362544;27;20044;-73
2023/02/17 04:53:00;;;;;;;18.02;9.35;;;;;;;-0.39;100.00;100717.91;6351840;27;20563;-76
2023/02/17 04:56:03;;;;;;;26.00;7.13;;;;;;;-0.34;100.00;100720.44;6346592;28;20047;-76
2023/02/17 04:59:04;;;;;;;20.80;8.77;;;;;;;-0.35;100.00;100722.16;6345022;28;20475;-77
2023/02/17 05:02:05;;;;;;;18.55;8.70;;;;;;;-0.36;100.00;100724.72;6345321;27;20047;-77
2023/02/17 05:05:06;;;;;;;16.88;8.10;;;;;;;-0.37;100.00;100734.16;6371613;27;20035;-76
2023/02/17 05:08:10;;;;;;;16.30;6.82;;;;;;;-0.29;100.00;100737.53;6371538;27;20039;-73
2023/02/17 05:11:12;;;;;;;11.10;7.60;;;;;;;-0.33;100.00;100727.25;6365332;28;20039;-74
2023/02/17 05:14:13;;;;;;;16.67;8.05;;;;;;;-0.33;100.00;100730.72;6344750;28;20044;-73
2023/02/17 05:17:14;;;;;;;21.80;7.35;;;;;;;-0.30;100.00;100734.97;6348582;28;20127;-73
2023/02/17 05:20:15;;;;;;;18.55;9.93;;;;;;;-0.25;100.00;100741.78;6351201;28;20046;-73
2023/02/17 05:23:17;;;;;;;;;;;;;;;-0.29;100.00;100742.66;6350489;28;20046;-73
2023/02/17 05:26:18;;;;;;;17.73;5.68;;;;;;;-0.29;100.00;100726.38;6349811;28;19939;-73
2023/02/17 05:29:19;;;;;;;9.50;5.60;;;;;;;-0.37;100.00;100733.28;6351004;28;20039;-73
2023/02/17 05:32:23;;;;;;;20.95;8.98;;;;;;;-0.44;100.00;100740.16;6366904;27;20046;-76
2023/02/17 05:35:23;;;;;;;13.65;8.10;;;;;;;-0.40;100.00;100752.09;6373500;27;20126;-76
2023/02/17 05:38:24;;;;;;;25.15;7.97;;;;;;;-0.38;100.00;100750.38;6381968;27;20039;-76
2023/02/17 05:41:25;;;;;;;20.13;8.88;;;;;;;-0.49;100.00;100747.03;6367262;27;20035;-76
2023/02/17 05:44:29;;;;;;;35.65;8.25;;;;;;;-0.38;100.00;100755.50;6349606;28;20040;-76
2023/02/17 05:47:34;;;;;;;13.32;7.18;;;;;;;-0.41;100.00;100755.53;6373033;27;20042;-76
2023/02/17 05:50:37;;;;;;;11.38;6.05;;;;;;;-0.45;100.00;100751.28;6372728;27;20069;-76
2023/02/17 05:53:38;;;;;;;8.63;6.35;;;;;;;-0.54;100.00;100748.75;6358335;27;20425;-76
2023/02/17 05:56:39;;;;;;;13.85;7.00;;;;;;;-0.41;100.00;100763.22;6352982;27;20453;-76
2023/02/17 05:59:40;;;;;;;20.27;9.02;;;;;;;-0.39;100.00;100774.31;6372431;27;20406;-76
2023/02/17 06:02:41;;;;;;;16.35;6.88;;;;;;;-0.35;100.00;100772.56;6374595;27;20046;-76
2023/02/17 06:05:43;;;;;;;22.52;7.63;;;;;;;-0.29;100.00;100783.69;6374653;27;20049;-76
2023/02/17 06:08:44;;;;;;;16.48;7.90;;;;;;;-0.19;100.00;100799.00;6374588;27;20490;-77
2023/02/17 06:11:45;;;;;;;13.13;7.85;;;;;;;-0.18;100.00;100799.03;6375683;27;20035;-77
2023/02/17 06:14:48;;;;;;;18.92;9.25;;;;;;;-0.14;100.00;100787.03;6374333;27;20047;-74
2023/02/17 06:17:51;;;;;;;16.63;8.48;;;;;;;-0.18;100.00;100778.50;6357576;27;20067;-76
2023/02/17 06:20:56;;;;;;;21.50;9.80;;;;;;;-0.17;100.00;100769.09;6352167;27;20483;-73
2023/02/17 06:23:59;;;;;;;21.67;7.93;;;;;;;-0.02;100.00;100774.97;6348490;28;20043;-74
2023/02/17 06:27:00;;;;;;;23.33;7.75;;;;;;;-0.02;100.00;100779.28;6348038;28;20407;-77
2023/02/17 06:30:01;;;;;;;13.95;7.43;;;;;;;0.03;100.00;100769.81;6348593;28;20517;-77
2023/02/17 06:33:03;;;;;;;15.30;9.17;;;;;;;0.04;100.00;100768.09;6363436;27;20047;-73
2023/02/17 06:36:04;;;;;;;17.58;7.75;;;;;;;0.08;100.00;100774.91;6357713;27;20096;-74
2023/02/17 06:39:05;;;;;;;16.35;8.45;;;;;;;0.06;100.00;100774.91;6349393;28;20036;-74
2023/02/17 06:42:06;;;;;;;19.98;7.55;;;;;;;0.17;100.00;100778.28;6362391;27;20495;-73
2023/02/17 06:45:07;;;;;;;13.15;7.43;;;;;;;0.31;100.00;100772.19;6372848;27;20116;-73
2023/02/17 06:48:08;;;;;;;15.10;7.43;;;;;;;0.37;100.00;100778.16;6373101;27;20046;-73
2023/02/17 06:51:09;;;;;;;20.27;8.13;;;;;;;0.46;100.00;100779.78;6373365;27;20039;-74
2023/02/17 06:54:10;;;;;;;19.88;6.57;;;;;;;0.46;100.00;100774.66;6373102;27;20043;-73
2023/02/17 06:57:10;;;;;;;13.55;6.88;;;;;;;0.54;100.00;100775.44;6373201;27;20104;-76
2023/02/17 07:00:14;;;;;;;24.90;9.15;;;;;;;0.54;100.00;100780.56;6374179;27;20050;-76
2023/02/17 07:03:14;;;;;;;13.95;7.95;;;;;;;0.54;100.00;100779.72;6373019;27;20501;-76
2023/02/17 07:06:15;;;;;;;16.27;7.00;;;;;;;0.51;100.00;100787.44;6372819;27;20039;-76
2023/02/17 07:09:16;;;;;;;22.55;8.93;;;;;;;0.69;100.00;100778.75;6374221;27;20045;-76
2023/02/17 07:12:17;;;;;;;19.67;8.85;;;;;;;0.72;100.00;100773.56;6374169;27;20399;-73
2023/02/17 07:15:18;;;;;;;26.15;9.40;;;;;;;0.72;100.00;100771.88;6372697;27;20487;-77
2023/02/17 07:18:19;;;;;;;16.65;7.28;;;;;;;0.84;100.00;100785.44;6372800;27;20120;-74
2023/02/17 07:21:20;;;;;;;13.98;7.80;;;;;;;0.80;100.00;100782.06;6372634;27;20051;-74
2023/02/17 07:24:21;;;;;;;17.15;8.00;;;;;;;0.86;100.00;100776.00;6372507;27;20051;-74
2023/02/17 07:27:21;;;;;;;16.90;10.02;;;;;;;0.92;100.00;100775.94;6372519;27;20494;-77
2023/02/17 07:30:22;;;;;;;24.67;10.05;;;;;;;0.97;100.00;100767.34;6372510;27;20039;-73
2023/02/17 07:33:25;;;;;;;20.75;10.18;;;;;;;1.04;100.00;100757.84;6372148;27;20099;-76
2023/02/17 07:36:26;;;;;;;22.35;10.40;;;;;;;0.95;100.00;100757.94;6372375;27;20035;-74
2023/02/17 07:39:29;;;;;;;15.30;8.45;;;;;;;1.09;100.00;100752.66;6406024;27;20402;-73
2023/02/17 07:42:33;;;;;;;18.50;10.88;;;;;;;1.18;100.00;100753.41;6372262;27;20070;-76
2023/02/17 07:45:33;;;;;;;18.90;9.75;;;;;;;1.12;100.00;100761.19;6371878;27;20046;-76
2023/02/17 07:48:35;;;;;;;19.38;7.47;;;;;;;1.18;100.00;100760.28;6373130;27;20039;-76
2023/02/17 07:51:35;;;;;;;17.38;8.60;;;;;;;1.24;100.00;100764.50;6373341;27;20537;-76
2023/02/17 07:54:36;;;;;;;16.42;9.13;;;;;;;1.32;100.00;100763.53;6371806;27;20071;-76
2023/02/17 07:57:37;;;;;;;16.40;9.07;;;;;;;1.30;100.00;100772.16;6371880;27;20035;-77
2023/02/17 08:00:38;;;;;;;14.68;8.68;;;;;;;1.34;100.00;100773.78;6372864;27;20061;-73
2023/02/17 08:03:39;;;;;;;26.52;9.18;;;;;;;1.34;100.00;100777.22;6372735;27;20043;-73
2023/02/17 08:06:44;;;;;;;18.50;9.55;;;;;;;1.37;100.00;100778.91;6371512;27;20046;-76
2023/02/17 08:13:21;;;;;;;25.40;10.07;;;;;;;1.82;100.00;100784.34;6372347;27;20043;-77
2023/02/17 08:16:25;;;;;;;20.77;10.88;;;;;;;1.87;100.00;100779.97;6372552;27;20130;-73
2023/02/17 08:19:26;;;;;;;19.75;9.80;;;;;;;2.03;100.00;100761.75;6372411;27;20039;-74
2023/02/17 08:22:29;;;;;;;18.55;9.13;;;;;;;1.94;100.00;100767.91;6371236;27;20406;-76
2023/02/17 08:25:32;;;;;;;28.05;12.82;;;;;;;1.90;100.00;100761.09;6370990;27;20035;-77
2023/02/17 08:28:33;;;;;;;13.73;7.97;;;;;;;1.94;100.00;100755.88;6371163;27;20120;-74
2023/02/17 08:31:35;;;;;;;14.57;9.13;;;;;;;1.84;100.00;100767.16;6370862;27;20114;-77
2023/02/17 08:34:36;;;;;;;15.80;10.05;;;;;;;1.96;100.00;100763.59;6372029;27;20131;-76
2023/02/17 08:37:37;;;;;;;17.05;8.60;;;;;;;2.07;100.00;100774.56;6370934;27;20039;-73
2023/02/17 08:40:39;;;;;;;16.27;10.02;;;;;;;2.19;100.00;100781.25;6370708;27;20064;-74
2023/02/17 08:43:41;;;;;;;21.25;9.35;;;;;;;2.45;100.00;100774.84;6405246;27;20031;-76
2023/02/17 08:46:43;;;;;;;17.65;8.60;;;;;;;2.26;100.00;100775.13;6370623;27;20043;-73
2023/02/17 08:49:44;;;;;;;18.73;9.43;;;;;;;2.16;100.00;100768.41;6371705;27;20079;-73
2023/02/17 08:52:46;;;;;;;18.95;10.32;;;;;;;2.17;100.00;100770.13;6371740;27;20043;-73
2023/02/17 08:55:46;;;;;;;21.02;8.82;;;;;;;2.19;100.00;100769.22;6370564;27;20043;-74
2023/02/17 08:58:49;;;;;;;28.15;11.68;;;;;;;2.34;100.00;100775.03;6371513;27;20531;-73
2023/02/17 09:01:52;;;;;;;14.05;7.60;;;;;;;2.16;100.00;100781.28;6370476;27;20475;-75
2023/02/17 09:04:53;;;;;;;20.90;10.75;;;;;;;2.15;100.00;100759.84;6371484;27;20043;-76
2023/02/17 09:07:56;;;;;;;18.45;10.02;;;;;;;2.18;100.00;100764.09;6370368;27;20486;-73
2023/02/17 09:10:58;;;;;;;25.25;11.10;;;;;;;2.40;100.00;100762.88;6371541;27;20046;-76
2023/02/17 09:13:59;;;;;;;18.38;9.15;;;;;;;2.38;100.00;100762.06;6370225;28;20039;-74
2023/02/17 09:17:00;;;;;;;19.38;9.77;;;;;;;2.44;100.00;100771.44;6370505;28;20493;-73
2023/02/17 09:20:00;;;;;;;19.55;10.15;;;;;;;2.66;100.00;100776.22;6371353;28;20114;-72
2023/02/17 09:23:01;;;;;;;15.68;9.95;;;;;;;2.52;100.00;100766.16;6370219;28;20043;-76
2023/02/17 09:26:08;;;;;;;19.52;10.45;;;;;;;2.54;100.00;100779.88;6369899;28;20043;-72
2023/02/17 09:29:11;;;;;;;9.82;6.80;;;;;;;2.53;100.00;100779.03;6371386;28;20054;-72
2023/02/17 09:32:13;;;;;;;23.83;11.88;;;;;;;2.68;100.00;100772.75;6370116;28;20079;-72
2023/02/17 09:35:15;;;;;;;29.40;10.63;;;;;;;2.72;100.00;100795.03;6371640;27;20047;-77
2023/02/17 09:38:16;;;;;;;28.90;9.90;;;;;;;2.68;100.00;100783.06;6371168;27;20044;-77
2023/02/17 09:41:17;;;;;;;32.88;11.32;;;;;;;2.84;100.00;100801.69;6371322;27;20043;-77
2023/02/17 09:44:23;;;;;;;24.83;13.05;;;;;;;2.95;100.00;100797.19;6369968;28;20043;-77
2023/02/17 09:47:41;;;;;;;27.38;15.27;;;;;;;2.99;100.00;100785.13;6371146;27;20113;-76
2023/02/17 09:51:00;;;;;;;29.90;12.23;;;;;;;2.83;100.00;100790.53;6371096;27;20118;-74
2023/02/17 09:54:12;;;;;;;14.55;9.32;;;;;;;2.82;100.00;100795.69;6371019;27;20475;-77
2023/02/17 09:57:19;;;;;;;25.55;12.50;;;;;;;2.76;100.00;100791.53;6369897;28;20043;-72
2023/02/17 10:00:24;;;;;;;29.88;11.38;;;;;;;2.81;100.00;100789.69;6370870;28;20088;-72
2023/02/17 10:03:45;;;;;;;19.13;9.45;;;;;;;2.81;100.00;100794.00;6373270;27;20039;-72
2023/02/17 10:06:58;;;;;;;32.55;12.90;;;;;;;2.88;100.00;100805.06;6374422;27;20039;-76
2023/02/17 10:10:05;;;;;;;23.20;11.65;;;;;;;2.92;100.00;100798.97;6374493;27;20047;-75
2023/02/17 10:13:08;;;;;;;26.95;11.82;;;;;;;2.93;100.00;100795.53;6374623;27;20039;-75
2023/02/17 10:16:20;;;;;;;21.58;12.63;;;;;;;3.00;100.00;100800.53;6375364;27;20046;-75
2023/02/17 10:19:50;;;;;;;22.17;11.43;;;;;;;3.13;100.00;100787.41;6374239;27;20043;-74
2023/02/17 10:22:58;;;;;;;22.42;12.02;;;;;;;3.51;100.00;100778.09;6367374;27;20499;-73
2023/02/17 10:26:30;;;;;;;24.83;10.48;;;;;;;3.64;100.00;100761.47;6375008;27;20108;-73
2023/02/17 10:29:49;;;;;;;16.75;10.75;;;;;;;3.85;100.00;100755.03;6375090;27;20047;-73
2023/02/17 10:33:27;;;;;;;21.90;11.18;;;;;;;3.81;100.00;100750.81;6373588;27;20051;-72
2023/02/17 10:36:46;;;;;;;24.60;10.75;;;;;;;4.02;100.00;100747.72;6373622;27;20054;-73
2023/02/17 10:39:50;;;;;;;16.60;9.77;;;;;;;3.82;100.00;100730.09;6374945;27;20407;-72
2023/02/17 10:42:58;;;;;;;28.33;12.30;;;;;;;3.89;100.00;100732.53;6374878;27;20538;-72
2023/02/17 10:46:04;;;;;;;18.15;10.13;;;;;;;3.87;100.00;100732.59;6374687;27;20043;-73
2023/02/17 10:49:05;;;;;;;25.52;12.98;;;;;;;3.86;100.00;100728.31;6374776;27;20046;-73
2023/02/17 10:52:16;;;;;;;19.70;10.10;;;;;;;3.91;100.00;100741.09;6373436;27;20068;-72
2023/02/17 10:55:23;;;;;;;26.45;10.02;;;;;;;4.02;100.00;100721.91;6374557;27;20100;-73
2023/02/17 10:58:47;;;;;;;31.02;11.77;;;;;;;4.23;100.00;100711.94;6373281;27;20067;-72
2023/02/17 11:01:48;;;;;;;25.73;12.38;;;;;;;4.21;100.00;100721.47;6366088;27;20059;-76
2023/02/17 11:04:53;;;;;;;21.60;11.70;;;;;;;4.45;100.00;100712.28;6373166;27;20046;-76
2023/02/17 11:07:59;;;;;;;20.65;11.48;;;;;;;4.52;100.00;100716.38;6373123;27;20047;-76
2023/02/17 11:11:16;;;;;;;17.75;9.63;;;;;;;4.28;100.00;100715.25;6373008;27;20058;-76
2023/02/17 11:14:23;;;;;;;14.68;8.98;;;;;;;4.40;100.00;100707.19;6372775;27;20046;-76
2023/02/17 11:17:34;;;;;;;31.77;13.23;;;;;;;4.61;100.00;100705.81;6374051;27;20046;-76
2023/02/17 11:20:36;;;;;;;27.50;13.30;;;;;;;4.91;100.00;100694.72;6372816;27;20035;-73
2023/02/17 11:23:54;;;;;;;25.60;12.23;;;;;;;4.98;99.99;100691.03;6372694;27;20130;-73
2023/02/17 11:27:09;;;;;;;18.75;8.10;;;;;;;4.90;100.00;100688.69;6373588;27;20485;-72
2023/02/17 11:30:14;;;;;;;21.75;12.13;;;;;;;4.85;99.84;100680.19;6372526;27;20047;-73
2023/02/17 11:33:21;;;;;;;19.02;8.85;;;;;;;4.79;100.00;100680.38;6373324;27;20494;-72
2023/02/17 11:36:28;;;;;;;19.42;9.90;;;;;;;4.95;100.00;100683.38;6373657;27;20111;-72
2023/02/17 11:39:36;;;;;;;15.10;9.18;;;;;;;5.11;98.70;100673.47;6373402;27;20047;-72
2023/02/17 11:42:37;;;;;;;26.85;9.75;;;;;;;5.35;98.15;100682.25;6372274;27;20498;-72
2023/02/17 11:46:17;;;;;;;20.77;10.40;;;;;;;5.28;97.13;100686.75;6371865;27;20166;-73
2023/02/17 11:49:49;;;;;;;14.68;8.90;;;;;;;5.34;96.51;100663.28;6368980;27;20587;-73
2023/02/17 11:52:57;;;;;;;12.65;7.13;;;;;;;5.23;95.19;100668.78;6373173;27;20042;-76
2023/02/17 11:56:07;;;;;;;20.48;10.00;;;;;;;5.43;95.80;100647.47;6372977;27;20527;-76
2023/02/17 11:59:30;;;;;;;19.98;9.77;;;;;;;5.59;96.48;100637.50;6373329;27;20059;-75
2023/02/17 12:02:51;;;;;;;21.10;10.77;;;;;;;5.86;95.76;100627.16;6371756;27;20047;-76
2023/02/17 12:06:09;;;;;;;17.83;10.50;;;;;;;5.87;96.21;100621.09;6372375;27;20077;-76
2023/02/17 12:09:35;;;;;;;25.55;12.13;;;;;;;6.12;95.26;100610.81;6371632;27;20036;-76
2023/02/17 12:12:55;;;;;;;18.08;9.52;;;;;;;6.34;94.73;100628.19;6372574;27;20043;-76
2023/02/17 12:16:08;;;;;;;18.40;9.38;;;;;;;6.24;92.47;100644.06;6372552;27;20505;-76
2023/02/17 12:19:33;;;;;;;25.42;9.32;;;;;;;6.31;93.14;100642.13;6371379;27;20058;-76
2023/02/17 12:23:23;;;;;;;23.40;8.38;;;;;;;6.32;90.72;100638.66;6371347;27;20042;-73
2023/02/17 12:26:46;;;;;;;26.75;11.35;;;;;;;6.68;88.22;100635.66;6365895;27;20062;-72
2023/02/17 12:30:06;;;;;;;14.10;8.15;;;;;;;6.92;88.38;100630.47;6370975;27;20126;-72
2023/02/17 12:33:32;;;;;;;19.98;11.10;;;;;;;6.98;86.00;100633.72;6372138;27;20047;-73
2023/02/17 12:36:37;;;;;;;21.33;9.85;;;;;;;6.74;87.70;100635.44;6370791;27;20054;-73
2023/02/17 12:40:18;;;;;;;25.88;9.80;;;;;;;6.78;89.29;100631.00;6371107;27;20406;-73
2023/02/17 12:43:27;;;;;;;17.83;9.70;;;;;;;6.90;88.58;100632.28;6350037;27;20051;-73
2023/02/17 12:46:35;;;;;;;17.98;9.77;;;;;;;6.84;88.39;100626.44;6370517;27;20082;-73
2023/02/17 12:49:36;;;;;;;16.05;8.48;;;;;;;7.03;89.24;100610.19;6371827;27;20079;-73
2023/02/17 12:52:43;;;;;;;20.50;10.20;;;;;;;7.37;88.38;100604.56;6370523;27;20043;-73
2023/02/17 12:55:51;;;;;;;20.10;10.85;;;;;;;7.31;88.82;100603.94;6371751;27;20066;-73
2023/02/17 12:58:59;;;;;;;25.58;10.07;;;;;;;7.27;88.73;100600.63;6370530;27;20187;-73
2023/02/17 13:02:08;;;;;;;29.08;11.43;;;;;;;7.33;88.64;100603.00;6371664;27;20540;-76
2023/02/17 13:05:27;;;;;;;16.15;10.15;;;;;;;7.23;89.26;100597.28;6371534;27;20062;-76
2023/02/17 13:08:53;;;;;;;20.15;11.43;;;;;;;7.56;89.80;100594.28;6370358;27;20044;-76
2023/02/17 13:12:10;;;;;;;20.92;9.93;;;;;;;7.68;88.60;100605.94;6370466;27;20426;-76
2023/02/17 13:15:37;;;;;;;23.95;12.02;;;;;;;7.56;89.16;100591.69;6371617;27;20051;-76
2023/02/17 13:18:45;;;;;;;19.85;10.68;;;;;;;7.32;90.28;100585.72;6370242;28;20043;-76
2023/02/17 13:21:55;;;;;;;15.95;9.40;;;;;;;7.22;91.27;100590.41;6370298;28;20035;-77
2023/02/17 13:24:56;;;;;;;25.90;10.80;;;;;;;7.42;90.73;100581.84;6371470;27;20043;-76
2023/02/17 13:28:02;;;;;;;17.80;9.95;;;;;;;7.32;92.08;100577.06;6370072;28;20050;-76
2023/02/17 13:31:14;;;;;;;23.13;10.80;;;;;;;7.35;92.50;100563.97;6371564;27;20088;-76
2023/02/17 13:34:35;;;;;;;21.10;10.88;;;;;;;7.39;91.83;100560.34;6371271;27;20414;-76
2023/02/17 13:37:41;;;;;;;25.77;10.60;;;;;;;7.42;91.56;100587.03;6372556;27;20590;-76
2023/02/17 13:40:42;;;;;;;22.40;10.25;;;;;;;7.45;92.20;100573.94;6376358;27;20139;-76
2023/02/17 13:43:43;;;;;;;19.50;10.07;;;;;;;7.48;92.58;100578.16;6375193;27;20046;-76
2023/02/17 13:46:45;;;;;;;22.27;10.98;;;;;;;7.39;92.20;100555.16;6374863;27;20047;-76
2023/02/17 13:49:55;;;;;;;27.15;10.63;;;;;;;7.45;93.46;100570.47;6376269;27;20168;-73
2023/02/17 13:52:57;;;;;;;23.73;10.73;;;;;;;7.51;94.27;100565.03;6376051;27;20452;-73
2023/02/17 13:56:04;;;;;;;19.50;9.75;;;;;;;7.45;95.68;100570.47;6374890;27;20035;-73
2023/02/17 13:59:28;;;;;;;19.52;9.05;;;;;;;7.41;97.18;100569.78;6374751;27;20047;-76
2023/02/17 14:02:29;;;;;;;20.70;11.00;;;;;;;7.35;98.52;100564.84;6374762;27;20043;-76
2023/02/17 14:05:29;;;;;;;19.92;10.30;;;;;;;7.50;99.01;100563.38;6374470;27;20430;-76
2023/02/17 14:08:37;;;;;;;22.65;8.70;;;;;;;7.42;100.00;100558.47;6375715;27;20039;-76
2023/02/17 14:11:38;;;;;;;20.25;11.25;;;;;;;7.52;100.00;100553.78;6375684;27;20043;-76
2023/02/17 14:14:39;;;;;;;22.98;11.38;;;;;;;7.44;100.00;100551.47;6374385;27;20043;-76
2023/02/17 14:17:40;;;;;;;27.92;10.00;;;;;;;7.38;100.00;100549.13;6374192;27;20035;-76